Terminal Aerodrome Forecast
Issued by NWS Atlanta, GA

Home | Current Version | Previous Version | Text Only | Print | Product List | Glossary On
Versions: 1 2 3 4 5 6 7 8 9 10 11 12 13 14
000
FTUS42 KFFC 041726
TAFMCN
TAF
KMCN 041726Z 0418/0518 15006KT P6SM SCT070
     FM050200 12003KT P6SM FEW080
     FM051200 09004KT P6SM FEW250
     FM051700 12007KT P6SM SCT060=

USA.gov is the U.S. government's official web portal to all federal, state and local government web resources and services.